サイパン島 の空港の天気 - METARとTAF

サイパン国際空港 ( PGSN / SPN ) - 北マリアナ諸島 サイパン島
飛行場実況気象(Metar)
観測時間09/21 07:37 ChST (09/20 21:37 UTC)
風向・風速東南東 13m/s 瞬間風速21m/s
視程2400m
天気現象強い雨 もや
全天の4割程度の雲 雲底高度 460m
全天の8割程度の雲 雲底高度 1010m
全天を覆う雲 雲底高度 1520m
気温24.4℃
湿度100%
気圧1007hPa
METARPGSN 202137Z 11025G41KT 1 1/2SM +RA BR SCT015 BKN033 OVC050 24/24 A2974 RMK AO2 PK WND 12041/2131 P0002 T02440244
過去の天気等 Google飛行場航空写真 Wunderground天気予報

過去48時間のMETAR

飛行場予報(TAF)
発表時間: 9/21 03:31 ChST (9/20 17:31 UTC)
予報対象時間: 21日4時 ChST ~ 22日4時 ChST
風向・風速東南東 10m/s 瞬間風速 15m/s
視程10km以上
天気現象弱い雨
全天の4割程度の雲 雲底高度 550m
全天の4割程度の雲 雲底高度 1220m
全天の8割程度の雲 雲底高度 1830m
21日4時 ChST ~ 21日8時 ChST に一時的に
風向・風速東南東 13m/s 瞬間風速 19m/s
視程4830m
天気現象しゅう雨
全天の4割程度の雲 雲底高度 430m
全天の8割程度の雲 雲底高度 760m
全天を覆う雲 雲底高度 1520m
21日14時 ChST から
風向・風速南南東 8m/s 瞬間風速 13m/s
視程10km以上
天気現象しゅう雨
全天の4割程度の雲 雲底高度 460m
全天を覆う雲 雲底高度 910m
PGSN 201731Z 2018/2118 11020G30KT 6SM -RA SCT018 SCT040 BKN060
TEMPO 2018/2022 12025G36KT 3SM SHRA SCT014 BKN025 OVC050
FM210400 16016G26KT 6SM SHRA SCT015 OVC030